Time;durP1;ratioP1;P1;durP2;ratioP2;P2;SDS_P1;SDS_P2;PMS_P1;PMS_P2;Temp;Humidity;BMP_temperature;BMP_pressure;BME280_temperature;BME280_humidity;BME280_pressure;Samples;Min_cycle;Max_cycle;Signal;HPM_P1;HPM_P2
2022/01/12 00:00:17;;;;;;;8.45;3.45;;;;;;;-11.02;69.34;100407.19;5045098;28;19920;-80
2022/01/12 00:02:42;;;;;;;;;;;;;;;-10.99;69.79;100417.50;5013091;28;20064;-82
2022/01/12 00:05:09;;;;;;;7.70;3.58;;;;;;;-11.06;69.62;100422.69;5012333;28;19964;-81
2022/01/12 00:07:34;;;;;;;;;;;;;;;-11.00;69.73;100428.25;4980900;28;20038;-81
2022/01/12 00:10:00;;;;;;;6.20;3.55;;;;;;;-10.99;69.49;100416.59;5012946;28;19964;-81
2022/01/12 00:12:26;;;;;;;;;;;;;;;-10.94;69.61;100421.31;4980869;28;20038;-82
2022/01/12 00:14:52;;;;;;;13.63;7.75;;;;;;;-10.88;69.28;100414.34;5013184;28;19967;-81
2022/01/12 00:17:18;;;;;;;8.07;3.90;;;;;;;-10.93;68.70;100409.66;4996388;28;20038;-79
2022/01/12 00:19:44;;;;;;;;;;;;;;;-10.99;68.13;100415.00;4996310;28;20129;-80
2022/01/12 00:22:09;;;;;;;7.25;3.55;;;;;;;-11.00;69.20;100410.72;5012213;28;19963;-81
2022/01/12 00:25:04;;;;;;;;;;;;;;;-10.88;68.66;100411.84;5013771;28;20045;-80
2022/01/12 00:33:33;;;;;;;7.22;3.40;;;;;;;-10.90;69.88;100394.91;5012028;28;20164;-80
2022/01/12 00:35:53;;;;;;;6.90;3.80;;;;;;;-10.92;68.75;100396.38;4997236;28;20398;-81
2022/01/12 00:38:21;;;;;;;7.00;3.67;;;;;;;-10.88;69.57;100401.81;5012344;28;20512;-81
2022/01/12 00:40:49;;;;;;;7.43;3.50;;;;;;;-10.84;68.82;100401.38;5011937;28;20089;-81
2022/01/12 00:43:16;;;;;;;6.75;3.88;;;;;;;-10.92;69.59;100397.28;5012114;28;20041;-80
2022/01/12 00:45:42;;;;;;;6.53;3.33;;;;;;;-10.92;69.73;100391.38;4979581;28;20096;-81
2022/01/12 00:48:09;;;;;;;8.07;3.90;;;;;;;-10.90;69.21;100398.31;4998720;28;20030;-81
2022/01/12 00:50:34;;;;;;;6.95;3.90;;;;;;;-10.88;69.68;100394.31;4999652;28;20531;-81
2022/01/12 00:53:03;;;;;;;6.75;3.35;;;;;;;-10.90;70.34;100400.81;4998940;28;20572;-80
2022/01/12 00:55:30;;;;;;;6.57;3.83;;;;;;;-10.91;69.59;100391.50;4999267;28;20053;-81
2022/01/12 00:57:58;;;;;;;7.65;4.03;;;;;;;-10.92;69.86;100394.75;4999312;28;20432;-81
2022/01/12 01:00:24;;;;;;;5.82;3.58;;;;;;;-10.97;68.64;100395.97;4983063;28;20092;-80
2022/01/12 01:02:50;;;;;;;5.53;3.60;;;;;;;-10.89;69.57;100386.66;4995755;28;20124;-80
2022/01/12 01:05:20;;;;;;;7.40;3.72;;;;;;;-10.87;68.54;100391.06;4996093;28;20046;-81
2022/01/12 01:07:46;;;;;;;6.95;3.75;;;;;;;-10.87;68.79;100381.03;4996093;28;20050;-81
2022/01/12 01:10:16;;;;;;;;;;;;;;;-10.91;69.67;100385.63;4999541;28;20038;-80
2022/01/12 01:12:42;;;;;;;6.70;4.03;;;;;;;-10.84;68.35;100380.44;4999852;28;19939;-80
2022/01/12 01:15:11;;;;;;;;;;;;;;;-10.86;68.40;100380.28;5015889;28;20034;-81
2022/01/12 01:25:43;;;;;;;6.00;3.60;;;;;;;-10.76;68.41;100379.53;5015534;28;20044;-81
2022/01/12 01:28:10;;;;;;;7.82;3.75;;;;;;;-10.83;68.86;100370.53;4983304;28;20396;-81
2022/01/12 01:30:38;;;;;;;15.50;4.40;;;;;;;-10.92;68.58;100367.19;4998756;28;20050;-81
2022/01/12 01:33:07;;;;;;;6.88;3.53;;;;;;;-10.85;69.18;100374.56;4983255;28;20408;-81
2022/01/12 01:35:34;;;;;;;8.30;4.30;;;;;;;-10.94;68.17;100376.22;4998882;28;20559;-81
2022/01/12 01:38:01;;;;;;;8.55;4.88;;;;;;;-10.96;68.79;100377.69;4998649;28;20045;-81
2022/01/12 01:40:29;;;;;;;7.75;3.90;;;;;;;-10.95;68.10;100381.06;5015017;28;20034;-81
2022/01/12 01:43:10;;;;;;;5.32;3.10;;;;;;;-10.99;67.92;100379.94;4982612;28;20060;-80
2022/01/12 01:53:52;;;;;;;7.63;3.85;;;;;;;-11.10;68.54;100361.38;4987421;28;20128;-80
2022/01/12 01:56:19;;;;;;;;;;;;;;;-11.01;68.47;100366.34;4998807;28;20457;-80
2022/01/12 01:58:48;;;;;;;;;;;;;;;-10.96;69.22;100371.78;4998236;28;19921;-81
2022/01/12 02:01:14;;;;;;;9.52;3.13;;;;;;;-10.96;68.65;100361.78;4998265;28;19952;-81
2022/01/12 02:03:49;;;;;;;6.38;3.58;;;;;;;-11.04;67.89;100359.47;5014406;28;20045;-81
2022/01/12 02:06:15;;;;;;;;;;;;;;;-11.02;67.39;100355.47;4982594;28;20457;-81
2022/01/12 02:08:45;;;;;;;7.03;3.83;;;;;;;-11.05;69.10;100350.16;4998662;28;19924;-81
2022/01/12 02:11:40;;;;;;;5.97;3.65;;;;;;;-11.10;67.94;100355.50;4979523;28;20613;-81
2022/01/12 02:14:14;;;;;;;7.55;3.88;;;;;;;-11.07;68.15;100351.66;4984254;28;20441;-81
2022/01/12 02:16:51;;;;;;;;;;;;;;;-11.10;68.12;100350.47;5014919;28;20049;-81
2022/01/12 02:35:52;;;;;;;7.43;4.18;;;;;;;-11.14;67.62;100343.44;5013795;28;20038;-81
2022/01/12 02:41:03;;;;;;;6.30;3.45;;;;;;;-10.98;68.82;100345.72;5013779;28;20576;-80
2022/01/12 02:53:38;;;;;;;7.10;4.13;;;;;;;-11.24;68.37;100338.31;5013744;28;20042;-81
2022/01/12 02:54:18;;;;;;;7.75;4.32;;;;;;;-11.20;68.67;100340.38;5013408;28;20041;-81
2022/01/12 02:56:43;;;;;;;;;;;;;;;-11.24;69.18;100341.72;5015230;28;20096;-81
2022/01/12 02:59:10;;;;;;;10.68;5.05;;;;;;;-11.25;68.87;100334.94;4997235;28;20483;-81
2022/01/12 03:04:07;;;;;;;9.43;4.30;;;;;;;-11.28;69.16;100333.03;4981450;28;20052;-81
2022/01/12 03:06:36;;;;;;;7.07;4.53;;;;;;;-11.29;70.06;100332.88;4998750;28;20033;-81
2022/01/12 03:09:04;;;;;;;8.40;4.30;;;;;;;-11.39;70.57;100331.16;5001451;28;20045;-80
2022/01/12 03:11:31;;;;;;;7.93;4.40;;;;;;;-11.33;70.33;100329.22;4988308;28;20124;-81
2022/01/12 03:14:03;;;;;;;10.48;4.60;;;;;;;-11.35;70.16;100329.84;4983076;28;20041;-80
2022/01/12 03:16:29;;;;;;;7.20;4.07;;;;;;;-11.32;70.94;100323.47;4997051;28;20041;-80
2022/01/12 03:18:59;;;;;;;8.38;3.97;;;;;;;-11.27;70.01;100327.28;5025950;28;20029;-80
2022/01/12 03:21:31;;;;;;;7.63;3.85;;;;;;;-11.30;69.82;100319.50;5000670;28;20055;-80
2022/01/12 03:23:57;;;;;;;9.98;5.15;;;;;;;-11.36;69.90;100318.94;5032961;28;20041;-80
2022/01/12 03:26:25;;;;;;;8.25;4.20;;;;;;;-11.42;70.53;100313.34;5001013;28;20068;-80
2022/01/12 03:28:55;;;;;;;7.50;4.15;;;;;;;-11.42;71.39;100314.97;5016830;28;20065;-79
2022/01/12 03:31:26;;;;;;;9.75;4.22;;;;;;;-11.41;70.84;100321.72;4991545;28;20037;-81
2022/01/12 03:33:57;;;;;;;6.20;3.92;;;;;;;-11.40;69.81;100311.88;5015340;28;20044;-81
2022/01/12 03:36:27;;;;;;;7.13;4.20;;;;;;;-11.44;70.08;100309.84;5016746;28;20071;-81
2022/01/12 03:38:59;;;;;;;7.90;4.15;;;;;;;-11.42;68.39;100307.47;5000585;28;20033;-80
2022/01/12 03:41:27;;;;;;;6.53;4.20;;;;;;;-11.38;69.48;100309.50;5008638;28;20121;-80
2022/01/12 03:43:53;;;;;;;7.97;4.30;;;;;;;-11.28;69.25;100320.50;4996815;28;20532;-78
2022/01/12 03:46:22;;;;;;;7.22;3.58;;;;;;;-11.19;68.22;100307.06;5012388;28;20046;-78
2022/01/12 03:48:48;;;;;;;5.43;3.10;;;;;;;-11.10;67.82;100307.91;4963950;28;20374;-78
2022/01/12 03:51:13;;;;;;;;;;;;;;;-11.17;66.56;100308.09;4980101;28;20049;-78
2022/01/12 03:53:39;;;;;;;6.55;4.05;;;;;;;-11.14;66.80;100314.25;4999534;28;19918;-79
2022/01/12 03:56:05;;;;;;;;;;;;;;;-11.16;68.00;100320.75;4976257;28;20053;-78
2022/01/12 03:58:32;;;;;;;7.47;4.22;;;;;;;-11.24;67.54;100308.28;4976483;28;20009;-78
2022/01/12 04:00:58;;;;;;;9.25;3.80;;;;;;;-11.34;67.33;100309.94;4992233;28;20041;-79
2022/01/12 04:03:26;;;;;;;;;;;;;;;-11.41;67.66;100325.13;4995494;28;20026;-77
2022/01/12 04:08:21;;;;;;;6.35;3.53;;;;;;;-11.28;67.85;100305.47;5011309;28;20034;-78
2022/01/12 04:10:53;;;;;;;8.55;4.50;;;;;;;-11.25;68.29;100314.03;4995672;28;20144;-78
2022/01/12 04:13:22;;;;;;;7.40;4.20;;;;;;;-11.37;66.64;100304.63;5011815;28;20049;-78
2022/01/12 04:15:51;;;;;;;9.10;4.63;;;;;;;-11.53;66.68;100326.50;4964590;28;20034;-78
2022/01/12 04:18:17;;;;;;;7.65;4.22;;;;;;;-11.50;68.16;100314.25;4995314;28;20053;-77
2022/01/12 04:20:46;;;;;;;;;;;;;;;-11.46;67.44;100317.94;4979570;28;20034;-77
2022/01/12 04:23:17;;;;;;;8.85;4.32;;;;;;;-11.49;67.66;100323.56;5026876;28;19987;-78
2022/01/12 04:25:47;;;;;;;8.43;4.47;;;;;;;-11.55;68.00;100316.34;4979493;28;20040;-77
2022/01/12 04:28:13;;;;;;;8.60;4.72;;;;;;;-11.59;68.20;100324.31;4995776;28;20044;-78
2022/01/12 04:30:39;;;;;;;;;;;;;;;-11.57;68.90;100317.81;4995884;28;20034;-78
2022/01/12 04:33:05;;;;;;;9.80;5.25;;;;;;;-11.47;68.89;100316.16;5027875;28;20373;-77
2022/01/12 04:35:34;;;;;;;;;;;;;;;-11.61;67.88;100312.38;5011912;28;20045;-78
2022/01/12 04:38:00;;;;;;;9.38;4.50;;;;;;;-11.60;67.99;100287.50;5011219;28;19917;-78
2022/01/12 04:40:26;;;;;;;;;;;;;;;-11.55;67.63;100297.94;4995453;28;20044;-78
2022/01/12 04:42:53;;;;;;;8.65;4.80;;;;;;;-11.57;67.71;100297.78;5012770;28;20007;-78
2022/01/12 04:50:24;;;;;;;9.77;4.93;;;;;;;-11.59;68.01;100295.88;4995594;28;20091;-78
2022/01/12 04:52:50;;;;;;;8.57;4.45;;;;;;;-11.47;68.24;100288.63;5011463;28;20473;-78
2022/01/12 04:55:15;;;;;;;;;;;;;;;-11.57;66.88;100289.41;4995446;28;20034;-78
2022/01/12 04:57:41;;;;;;;6.90;4.13;;;;;;;-11.64;68.79;100297.06;5011376;28;20308;-78
2022/01/12 05:00:16;;;;;;;7.05;3.22;;;;;;;-11.43;67.77;100291.56;4979006;28;20382;-78
2022/01/12 05:13:39;;;;;;;6.45;3.88;;;;;;;-11.49;67.17;100317.66;4997816;28;20038;-77
2022/01/12 05:16:05;;;;;;;7.97;4.25;;;;;;;-11.47;67.04;100313.66;4995270;28;20030;-78
2022/01/12 05:18:32;;;;;;;10.00;4.50;;;;;;;-11.58;66.12;100317.69;4978831;28;20041;-77
2022/01/12 05:20:58;;;;;;;8.70;4.88;;;;;;;-11.68;66.45;100320.97;4995253;28;20088;-78
2022/01/12 05:23:24;;;;;;;7.97;3.53;;;;;;;-11.50;67.67;100320.88;4994871;28;20038;-79
2022/01/12 05:25:52;;;;;;;8.27;4.05;;;;;;;-11.56;66.45;100324.59;4995265;28;20030;-77
2022/01/12 05:28:20;;;;;;;9.05;4.47;;;;;;;-11.60;66.28;100325.03;4995051;28;20053;-78
2022/01/12 05:30:47;;;;;;;7.32;3.83;;;;;;;-11.55;66.26;100317.97;4979187;28;20132;-78
2022/01/12 05:33:12;;;;;;;;;;;;;;;-11.45;65.55;100317.19;4979640;28;20100;-77
2022/01/12 05:35:38;;;;;;;7.05;3.80;;;;;;;-11.48;66.33;100315.28;4982015;28;19913;-80
2022/01/12 05:38:08;;;;;;;7.50;3.95;;;;;;;-11.45;66.69;100322.19;4983024;28;20136;-78
2022/01/12 05:40:35;;;;;;;7.40;3.70;;;;;;;-11.48;64.84;100319.41;5016194;28;20100;-79
2022/01/12 05:43:05;;;;;;;6.72;3.60;;;;;;;-11.46;66.00;100311.28;5014316;28;20117;-78
2022/01/12 05:45:34;;;;;;;8.32;4.22;;;;;;;-11.58;65.93;100315.19;5014398;28;20068;-78
2022/01/12 05:50:31;;;;;;;6.88;3.95;;;;;;;-11.69;65.97;100318.28;4983427;28;20507;-78
2022/01/12 05:53:01;;;;;;;7.65;4.18;;;;;;;-11.72;67.04;100318.03;4998479;28;20042;-76
2022/01/12 05:55:27;;;;;;;;;;;;;;;-11.82;65.70;100306.28;5014760;28;20523;-77
2022/01/12 05:57:53;;;;;;;7.68;3.15;;;;;;;-11.63;65.97;100318.88;5014594;28;20389;-80
2022/01/12 06:00:19;;;;;;;;;;;;;;;-11.69;66.56;100318.28;5014882;28;20041;-78
2022/01/12 06:02:51;;;;;;;7.25;3.70;;;;;;;-11.84;66.44;100323.66;5014303;28;19921;-79
2022/01/12 06:05:18;;;;;;;;;;;;;;;-11.83;65.94;100325.41;5014683;28;20038;-78
2022/01/12 06:07:48;;;;;;;7.40;3.80;;;;;;;-11.72;66.91;100315.53;5014029;28;19913;-77
2022/01/12 06:10:14;;;;;;;10.00;4.20;;;;;;;-11.85;66.43;100319.41;4981868;28;20138;-77
2022/01/12 06:12:40;;;;;;;;;;;;;;;-11.90;66.92;100334.72;4998507;28;20128;-81
2022/01/12 06:15:06;;;;;;;7.90;4.15;;;;;;;-11.95;67.89;100333.41;4997796;28;19921;-78
2022/01/12 06:17:33;;;;;;;7.15;4.07;;;;;;;-11.89;67.21;100327.34;5013852;28;20038;-78
2022/01/12 06:20:00;;;;;;;12.18;5.68;;;;;;;-11.74;66.35;100325.38;5013823;28;20034;-77
2022/01/12 06:22:50;;;;;;;7.03;3.65;;;;;;;-11.79;65.90;100322.44;5000887;28;20092;-78
2022/01/12 06:25:16;;;;;;;;;;;;;;;-11.80;66.95;100320.69;5013757;28;20053;-78
2022/01/12 06:27:54;;;;;;;9.55;4.38;;;;;;;-11.85;67.50;100319.41;5013488;28;19913;-78
2022/01/12 06:32:53;;;;;;;7.60;4.25;;;;;;;-11.87;66.63;100325.88;5013639;28;20057;-79
2022/01/12 06:35:18;;;;;;;8.82;3.88;;;;;;;-11.87;66.51;100318.38;4980945;28;20164;-77
2022/01/12 06:37:45;;;;;;;7.57;4.15;;;;;;;-11.83;66.23;100315.41;4997343;28;20405;-77
2022/01/12 06:40:10;;;;;;;;;;;;;;;-11.70;66.94;100334.06;5013707;28;20036;-78
2022/01/12 06:42:36;;;;;;;7.03;3.45;;;;;;;-11.66;67.07;100328.59;5046772;28;20778;-78
2022/01/12 06:45:02;;;;;;;;;;;;;;;-11.74;66.49;100330.38;5013443;28;20496;-81
2022/01/12 06:47:29;;;;;;;7.10;3.35;;;;;;;-11.68;66.14;100322.56;4997315;28;20011;-78
2022/01/12 06:49:54;;;;;;;;;;;;;;;-11.79;65.48;100332.44;5013654;28;20429;-80
2022/01/12 06:52:20;;;;;;;9.75;4.63;;;;;;;-11.86;66.50;100329.28;4996923;28;20012;-78
2022/01/12 06:54:46;;;;;;;;;;;;;;;-11.78;66.79;100334.22;5013603;28;20427;-77
2022/01/12 06:57:12;;;;;;;9.00;4.32;;;;;;;-11.70;66.64;100322.41;5013211;28;19928;-80
2022/01/12 06:59:38;;;;;;;8.25;3.90;;;;;;;-11.70;65.91;100326.56;5014427;28;20038;-78
2022/01/12 07:02:04;;;;;;;;;;;;;;;-11.78;66.79;100328.31;4996959;28;20052;-77
2022/01/12 07:04:35;;;;;;;9.57;4.90;;;;;;;-11.60;66.16;100330.03;4997041;28;19920;-78
2022/01/12 07:07:02;;;;;;;14.13;7.72;;;;;;;-11.52;65.67;100324.13;4997344;28;20034;-78
2022/01/12 07:09:28;;;;;;;9.00;4.32;;;;;;;-11.64;65.63;100322.97;4980518;28;20397;-77
2022/01/12 07:11:58;;;;;;;8.93;4.72;;;;;;;-11.66;65.67;100326.97;5013074;28;20096;-77
2022/01/12 07:14:29;;;;;;;11.02;4.00;;;;;;;-11.81;66.03;100321.44;4982089;28;20088;-79
2022/01/12 07:16:56;;;;;;;8.30;3.83;;;;;;;-11.83;65.54;100322.03;4996157;28;20041;-79
2022/01/12 07:19:23;;;;;;;8.43;4.13;;;;;;;-11.68;66.47;100320.97;5014181;28;20037;-77
2022/01/12 07:21:49;;;;;;;8.48;4.40;;;;;;;-11.78;65.89;100325.81;5014293;28;20038;-78
2022/01/12 07:24:15;;;;;;;;;;;;;;;-11.76;65.92;100316.84;5014466;28;20083;-78
2022/01/12 07:26:41;;;;;;;7.13;3.83;;;;;;;-11.69;66.10;100290.75;5012478;28;20411;-78
2022/01/12 07:29:09;;;;;;;;;;;;;;;-11.65;65.38;100305.34;4996654;28;20444;-81
2022/01/12 07:31:35;;;;;;;9.25;4.88;;;;;;;-11.75;66.73;100310.22;5013671;28;20297;-78
2022/01/12 07:34:00;;;;;;;;;;;;;;;-11.74;65.76;100304.47;5014277;28;20046;-79
2022/01/12 07:36:26;;;;;;;9.70;3.63;;;;;;;-11.70;66.33;100294.91;5013619;28;19959;-77
2022/01/12 07:38:55;;;;;;;;;;;;;;;-11.66;66.58;100298.56;5014279;28;20034;-78
2022/01/12 07:41:22;;;;;;;8.10;4.65;;;;;;;-11.80;65.21;100294.78;5013822;28;19917;-78
2022/01/12 07:43:47;;;;;;;7.53;4.43;;;;;;;-11.68;65.66;100295.03;4996528;28;20436;-79
2022/01/12 07:46:13;;;;;;;;;;;;;;;-11.61;65.55;100292.38;5012670;28;20049;-78
2022/01/12 07:48:38;;;;;;;9.45;4.80;;;;;;;-11.69;64.85;100295.78;5012292;28;19917;-83
2022/01/12 07:51:04;;;;;;;;;;;;;;;-11.60;65.41;100300.00;4996051;28;20046;-78
2022/01/12 07:53:30;;;;;;;9.13;4.90;;;;;;;-11.78;65.32;100299.19;4979798;28;19913;-78
2022/01/12 07:55:55;;;;;;;;;;;;;;;-11.78;64.40;100310.81;5011955;28;20052;-78
2022/01/12 07:58:21;;;;;;;9.07;4.43;;;;;;;-11.88;64.60;100304.09;5013093;28;20412;-82
2022/01/12 08:00:46;;;;;;;;;;;;;;;-11.92;64.59;100312.06;4996872;28;20045;-81
2022/01/12 08:03:12;;;;;;;7.95;4.60;;;;;;;-11.91;64.92;100303.84;5013141;28;19920;-82
2022/01/12 08:05:38;;;;;;;8.88;4.03;;;;;;;-11.94;65.16;100292.66;4980519;28;20080;-82
2022/01/12 08:08:06;;;;;;;11.63;4.60;;;;;;;-11.90;65.29;100300.59;5013151;28;20088;-80
2022/01/12 08:10:31;;;;;;;;;;;;;;;-11.86;64.79;100307.66;5012922;28;20435;-82
2022/01/12 08:12:57;;;;;;;13.18;4.90;;;;;;;-11.88;64.84;100311.59;4996344;28;19971;-80
2022/01/12 08:15:22;;;;;;;;;;;;;;;-11.90;64.27;100313.09;4997030;28;20485;-80
2022/01/12 08:17:48;;;;;;;8.30;4.72;;;;;;;-11.92;63.97;100309.56;4980140;28;19913;-80
2022/01/12 08:20:18;;;;;;;;;;;;;;;-11.84;65.15;100312.78;5013613;28;20121;-81
2022/01/12 08:22:43;;;;;;;9.88;4.60;;;;;;;-11.75;64.60;100310.22;4996649;28;19913;-82
2022/01/12 08:25:09;;;;;;;;;;;;;;;-11.58;63.69;100313.56;4996618;28;20048;-81
2022/01/12 08:27:37;;;;;;;10.20;5.13;;;;;;;-11.79;65.00;100307.44;5012302;28;19915;-83
2022/01/12 08:30:04;;;;;;;7.53;4.28;;;;;;;-11.68;64.84;100303.44;4995824;28;20516;-82
2022/01/12 08:32:30;;;;;;;9.95;5.32;;;;;;;-11.65;64.56;100310.34;4979620;28;20440;-82
2022/01/12 08:34:55;;;;;;;;;;;;;;;-11.52;63.42;100308.22;5012199;28;20041;-80
2022/01/12 08:37:21;;;;;;;8.23;4.43;;;;;;;-11.44;63.91;100296.44;5013445;28;19920;-80
2022/01/12 08:39:47;;;;;;;;;;;;;;;-11.47;62.80;100294.53;4996286;28;20073;-83
2022/01/12 08:42:13;;;;;;;9.15;4.53;;;;;;;-11.49;64.32;100293.50;5012698;28;20028;-81
2022/01/12 08:44:38;;;;;;;;;;;;;;;-11.46;63.88;100298.78;5012284;28;20119;-83
2022/01/12 08:47:05;;;;;;;12.25;5.75;;;;;;;-11.40;64.40;100294.34;5013774;28;19913;-80
2022/01/12 08:49:31;;;;;;;8.80;5.07;;;;;;;-11.50;64.69;100299.22;4995665;28;20045;-82
2022/01/12 08:51:56;;;;;;;;;;;;;;;-11.49;64.60;100296.00;5012433;28;20034;-80
2022/01/12 08:54:22;;;;;;;10.20;4.97;;;;;;;-11.44;64.80;100276.41;4996516;28;20296;-81
2022/01/12 08:56:47;;;;;;;;;;;;;;;-11.20;64.73;100288.66;5012333;28;20057;-81
2022/01/12 08:59:14;;;;;;;10.82;5.57;;;;;;;-11.22;63.37;100291.75;5012047;28;19928;-80
2022/01/12 09:01:40;;;;;;;9.20;5.18;;;;;;;-11.38;63.14;100271.94;4963314;28;20038;-79
2022/01/12 09:04:06;;;;;;;12.65;5.72;;;;;;;-11.13;64.85;100282.56;4995964;28;20042;-78
2022/01/12 09:06:31;;;;;;;;;;;;;;;-11.04;62.84;100279.28;4996448;28;20042;-80
2022/01/12 09:08:57;;;;;;;12.38;6.60;;;;;;;-11.11;63.39;100276.97;5015591;28;20363;-78
2022/01/12 09:11:22;;;;;;;;;;;;;;;-11.01;63.79;100277.03;5017189;28;20037;-81
2022/01/12 09:13:48;;;;;;;10.60;5.50;;;;;;;-10.97;63.31;100270.69;5015475;28;19927;-79
2022/01/12 09:16:14;;;;;;;;;;;;;;;-11.01;63.83;100271.16;5017371;28;20444;-78
2022/01/12 09:18:43;;;;;;;9.65;4.78;;;;;;;-11.18;63.18;100267.13;5015448;28;19956;-80
2022/01/12 09:21:09;;;;;;;10.45;5.40;;;;;;;-11.26;62.97;100273.09;5015431;28;20038;-80
2022/01/12 09:23:35;;;;;;;9.55;4.68;;;;;;;-11.17;64.16;100268.91;4998964;28;20041;-80
2022/01/12 09:26:02;;;;;;;;;;;;;;;-10.99;64.80;100259.66;4983325;28;20037;-78
2022/01/12 09:28:27;;;;;;;10.35;4.80;;;;;;;-10.93;62.98;100250.19;5016504;28;19917;-79
2022/01/12 09:30:53;;;;;;;;;;;;;;;-10.89;62.55;100269.75;5015405;28;20051;-79
2022/01/12 09:33:19;;;;;;;10.27;4.43;;;;;;;-10.76;63.79;100262.59;5016510;28;20020;-79
2022/01/12 09:35:47;;;;;;;;;;;;;;;-10.81;62.74;100265.41;5016296;28;20064;-79
2022/01/12 09:38:13;;;;;;;8.38;4.22;;;;;;;-10.84;62.57;100260.16;5015307;28;19921;-79
2022/01/12 09:40:39;;;;;;;;;;;;;;;-10.83;63.16;100260.28;4982703;28;20422;-80
2022/01/12 09:43:05;;;;;;;11.43;5.03;;;;;;;-10.91;62.04;100258.69;5016666;28;20048;-80
2022/01/12 09:45:31;;;;;;;8.63;4.68;;;;;;;-10.86;63.29;100252.47;4998462;28;20029;-79
2022/01/12 09:47:57;;;;;;;12.95;5.50;;;;;;;-10.98;63.04;100250.53;5015125;28;20409;-80
2022/01/12 09:50:23;;;;;;;;;;;;;;;-11.01;63.14;100246.09;4999289;28;20046;-79
2022/01/12 09:52:49;;;;;;;12.50;5.95;;;;;;;-10.99;63.48;100238.72;5015827;28;19973;-82
2022/01/12 09:55:16;;;;;;;9.43;5.40;;;;;;;-10.88;62.88;100236.44;5014890;28;20029;-79
2022/01/12 09:57:42;;;;;;;10.40;4.78;;;;;;;-10.71;63.50;100242.06;5014633;28;20057;-80
2022/01/12 10:00:08;;;;;;;;;;;;;;;-10.76;61.89;100241.66;5015544;28;20359;-80
2022/01/12 10:02:39;;;;;;;9.73;5.38;;;;;;;-10.89;62.69;100229.66;5014650;28;20389;-79
2022/01/12 10:05:07;;;;;;;9.52;5.50;;;;;;;-11.05;62.34;100239.94;5014756;28;20049;-80
2022/01/12 10:07:33;;;;;;;9.02;5.43;;;;;;;-10.89;63.94;100237.19;4998922;28;20029;-78
2022/01/12 10:10:07;;;;;;;10.55;5.65;;;;;;;-10.74;62.87;100240.16;5014010;28;20057;-79
2022/01/12 10:12:33;;;;;;;8.98;5.10;;;;;;;-10.78;62.54;100226.47;4999031;28;20044;-79
2022/01/12 10:15:01;;;;;;;9.88;5.32;;;;;;;-10.85;63.91;100224.19;4981601;28;20119;-79
2022/01/12 10:17:30;;;;;;;9.70;5.30;;;;;;;-10.87;64.07;100222.28;4981670;28;20052;-80
2022/01/12 10:20:19;;;;;;;10.05;5.10;;;;;;;-10.89;63.45;100219.63;5014547;28;20030;-79
2022/01/12 10:23:01;;;;;;;13.10;5.72;;;;;;;-10.83;64.07;100220.19;5013872;28;20042;-79
2022/01/12 10:25:28;;;;;;;11.43;5.75;;;;;;;-10.92;63.63;100224.38;4997504;28;20049;-79
2022/01/12 10:27:54;;;;;;;9.27;5.43;;;;;;;-10.85;63.54;100211.66;5014099;28;20056;-79
2022/01/12 10:30:20;;;;;;;;;;;;;;;-10.92;64.25;100229.38;5014316;28;20516;-79
2022/01/12 10:32:46;;;;;;;16.73;7.63;;;;;;;-10.98;64.10;100213.81;5013830;28;19917;-80
2022/01/12 10:35:12;;;;;;;;;;;;;;;-10.89;64.18;100212.13;4998008;28;20044;-79
2022/01/12 10:37:37;;;;;;;11.52;5.20;;;;;;;-10.67;62.96;100211.50;5013848;28;20341;-79
2022/01/12 10:40:03;;;;;;;;;;;;;;;-10.72;62.60;100216.09;5014525;28;20412;-80
2022/01/12 10:42:30;;;;;;;11.73;5.88;;;;;;;-10.83;64.42;100207.66;5013631;28;19913;-79
2022/01/12 10:45:03;;;;;;;11.55;6.20;;;;;;;-10.92;64.08;100199.31;4997561;28;20091;-79
2022/01/12 10:47:31;;;;;;;10.18;6.05;;;;;;;-10.82;64.07;100204.38;4998143;28;20070;-79
2022/01/12 10:50:07;;;;;;;8.63;5.10;;;;;;;-10.57;63.83;100201.53;5014529;28;20452;-81
2022/01/12 10:52:34;;;;;;;10.55;5.88;;;;;;;-10.57;64.36;100201.53;4996790;28;20083;-81
2022/01/12 10:55:04;;;;;;;9.18;5.25;;;;;;;-10.43;62.83;100203.63;5013090;28;20038;-79
2022/01/12 10:57:39;;;;;;;9.40;5.15;;;;;;;-10.38;63.19;100194.88;4996863;28;20096;-78
2022/01/12 11:00:18;;;;;;;10.52;5.20;;;;;;;-10.31;62.42;100188.72;4998086;28;20038;-80
2022/01/12 11:02:50;;;;;;;9.10;4.82;;;;;;;-10.41;62.09;100189.56;5012960;28;20497;-78
2022/01/12 11:05:20;;;;;;;14.00;6.18;;;;;;;-10.58;63.19;100193.16;4998275;28;20048;-79
2022/01/12 11:07:46;;;;;;;10.98;5.32;;;;;;;-10.58;63.85;100188.13;4981203;28;20049;-78
2022/01/12 11:10:11;;;;;;;;;;;;;;;-10.64;63.02;100190.09;5013598;28;20549;-77
2022/01/12 11:12:41;;;;;;;11.50;5.50;;;;;;;-10.62;63.87;100188.59;5014150;28;20003;-79
2022/01/12 11:15:11;;;;;;;10.38;5.10;;;;;;;-10.53;62.62;100193.53;5014063;28;20054;-78
2022/01/12 11:17:38;;;;;;;8.35;5.30;;;;;;;-10.66;63.28;100191.59;5012564;28;20038;-77
2022/01/12 11:20:15;;;;;;;11.63;6.18;;;;;;;-10.73;63.48;100193.41;4980769;28;20075;-79
2022/01/12 11:22:44;;;;;;;12.32;6.05;;;;;;;-10.67;63.02;100181.41;5012825;28;20156;-79
2022/01/12 11:25:21;;;;;;;10.18;6.20;;;;;;;-10.77;63.40;100170.56;5013532;28;20036;-80
2022/01/12 11:27:51;;;;;;;12.45;5.88;;;;;;;-10.65;63.56;100172.41;4995939;28;20081;-78
2022/01/12 11:30:23;;;;;;;10.27;5.75;;;;;;;-10.71;62.62;100170.25;4996462;28;20080;-79
2022/01/12 11:32:58;;;;;;;9.80;6.10;;;;;;;-10.75;62.97;100175.75;5012799;28;20033;-79
2022/01/12 11:35:36;;;;;;;12.93;6.63;;;;;;;-10.64;62.14;100169.16;4996358;28;20080;-79
2022/01/12 11:38:05;;;;;;;10.32;5.35;;;;;;;-10.61;62.61;100164.41;5012643;28;20072;-78
2022/01/12 11:40:41;;;;;;;11.50;6.30;;;;;;;-10.71;61.92;100164.38;4996665;28;20030;-78
2022/01/12 11:43:25;;;;;;;10.52;6.05;;;;;;;-10.70;63.47;100156.09;4996432;28;20045;-78
2022/01/12 11:46:05;;;;;;;9.13;5.05;;;;;;;-10.62;63.31;100157.66;5012577;28;20049;-83
2022/01/12 11:48:41;;;;;;;12.02;5.82;;;;;;;-10.65;62.35;100153.22;5012836;28;20037;-79
2022/01/12 11:51:07;;;;;;;12.98;6.80;;;;;;;-10.77;63.45;100147.16;5013752;28;20054;-81
2022/01/12 11:53:45;;;;;;;17.27;8.30;;;;;;;-10.71;64.01;100141.81;4980139;28;20042;-78
2022/01/12 11:56:12;;;;;;;9.85;5.22;;;;;;;-10.72;63.04;100148.41;5013568;28;20493;-78
2022/01/12 11:59:08;;;;;;;12.50;5.70;;;;;;;-10.66;63.27;100146.47;4996389;28;20127;-79
2022/01/12 12:01:49;;;;;;;10.82;5.65;;;;;;;-10.57;62.66;100148.91;4997311;28;20224;-79
2022/01/12 12:04:28;;;;;;;10.63;5.57;;;;;;;-10.47;61.92;100143.03;4996464;28;20488;-79
2022/01/12 12:07:09;;;;;;;12.38;7.32;;;;;;;-10.68;62.25;100147.06;4995831;28;20476;-79
2022/01/12 12:09:43;;;;;;;12.35;7.05;;;;;;;-10.73;63.35;100151.69;5012151;28;20386;-79
2022/01/12 12:12:12;;;;;;;15.60;7.03;;;;;;;-10.67;63.16;100148.81;4979884;28;20370;-79
2022/01/12 12:14:38;;;;;;;12.15;6.22;;;;;;;-10.77;62.61;100148.03;5012073;28;20029;-79
2022/01/12 12:17:03;;;;;;;;;;;;;;;-10.69;62.34;100150.31;5013960;28;20412;-78
2022/01/12 12:19:30;;;;;;;11.40;6.45;;;;;;;-10.81;63.86;100146.03;5011768;28;20007;-79
2022/01/12 12:21:56;;;;;;;12.60;6.70;;;;;;;-10.77;63.43;100139.63;5012000;28;20048;-80
2022/01/12 12:24:22;;;;;;;11.63;6.65;;;;;;;-10.88;64.47;100143.72;5011903;28;20523;-79
2022/01/12 12:26:49;;;;;;;;;;;;;;;-10.87;64.48;100137.94;4996225;28;20124;-78
2022/01/12 12:29:16;;;;;;;12.55;6.32;;;;;;;-10.89;63.27;100141.09;5011908;28;19917;-79
2022/01/12 12:31:45;;;;;;;11.50;5.85;;;;;;;-10.97;64.06;100135.41;5011690;28;20046;-78
2022/01/12 12:34:11;;;;;;;11.52;6.20;;;;;;;-11.03;63.88;100133.25;5012019;28;20420;-79
2022/01/12 12:36:37;;;;;;;;;;;;;;;-11.03;64.62;100142.38;4995800;28;20048;-79
2022/01/12 12:39:10;;;;;;;11.00;5.80;;;;;;;-10.95;64.52;100140.53;5011671;28;20369;-79
2022/01/12 12:41:38;;;;;;;17.08;6.18;;;;;;;-10.96;64.61;100144.66;5011652;28;20123;-78
2022/01/12 12:44:04;;;;;;;12.07;6.03;;;;;;;-11.05;64.25;100133.84;5014461;28;20038;-80
2022/01/12 12:46:30;;;;;;;12.35;6.55;;;;;;;-11.11;64.08;100140.81;4983051;28;20042;-79
2022/01/12 12:48:56;;;;;;;;;;;;;;;-11.11;65.40;100148.34;4999509;28;20121;-78